Time;durP1;ratioP1;P1;durP2;ratioP2;P2;SDS_P1;SDS_P2;PMS_P1;PMS_P2;Temp;Humidity;BMP_temperature;BMP_pressure;BME280_temperature;BME280_humidity;BME280_pressure;Samples;Min_cycle;Max_cycle;Signal;HPM_P1;HPM_P2
2022/08/11 00:00:11;;;;;;;6.70;3.97;;;28.00;38.90;;;;;;7370394;19;20927;-86
2022/08/11 00:02:42;;;;;;;6.45;3.95;;;27.90;38.70;;;;;;7372244;19;20022;-86
2022/08/11 00:05:19;;;;;;;4.68;3.58;;;27.90;38.80;;;;;;7370464;19;20010;-87
2022/08/11 00:07:51;;;;;;;7.53;4.53;;;27.90;38.50;;;;;;7396133;19;20118;-87
2022/08/11 00:10:26;;;;;;;7.05;3.92;;;27.90;38.80;;;;;;7381168;19;20022;-87
2022/08/11 00:13:00;;;;;;;7.32;4.13;;;27.80;38.80;;;;;;7379438;19;20105;-86
2022/08/11 00:15:38;;;;;;;8.20;3.50;;;27.80;39.00;;;;;;7381136;19;20007;-87
2022/08/11 00:18:10;;;;;;;8.55;3.88;;;27.80;39.00;;;;;;7380228;19;20031;-87
2022/08/11 00:20:47;;;;;;;10.57;3.50;;;27.80;38.90;;;;;;7379356;19;20082;-87
2022/08/11 00:23:19;;;;;;;10.30;3.83;;;27.70;39.10;;;;;;7382245;19;20077;-87
2022/08/11 00:25:50;;;;;;;7.82;3.83;;;27.80;38.90;;;;;;7399854;19;20307;-87
2022/08/11 00:28:27;;;;;;;7.13;3.47;;;27.80;39.20;;;;;;7381128;19;20019;-87
2022/08/11 00:30:58;;;;;;;8.52;4.07;;;27.80;39.00;;;;;;7379678;19;20307;-87
2022/08/11 00:33:34;;;;;;;5.65;3.83;;;27.70;38.90;;;;;;7379541;19;20014;-84
2022/08/11 00:36:07;;;;;;;3.80;3.30;;;27.70;39.50;;;;;;7384700;19;20015;-87
2022/08/11 00:38:43;;;;;;;8.52;3.90;;;27.70;39.60;;;;;;7383143;19;20021;-87
2022/08/11 00:41:30;;;;;;;11.32;3.90;;;27.70;39.70;;;;;;7385829;19;20019;-87
2022/08/11 00:44:24;;;;;;;4.78;3.75;;;27.60;39.50;;;;;;7407106;19;20031;-87
2022/08/11 00:47:03;;;;;;;8.52;4.07;;;27.60;39.80;;;;;;7379804;19;20090;-87
2022/08/11 00:49:44;;;;;;;8.27;3.55;;;27.60;39.80;;;;;;7380585;19;20486;-87
2022/08/11 00:52:31;;;;;;;6.10;3.60;;;27.60;39.90;;;;;;7379719;19;20339;-86
2022/08/11 00:55:29;;;;;;;6.78;4.20;;;27.60;40.00;;;;;;7379498;19;20051;-86
2022/08/11 00:58:28;;;;;;;7.57;3.42;;;27.60;40.10;;;;;;7379071;19;20019;-87
2022/08/11 01:01:13;;;;;;;8.52;4.10;;;27.60;40.10;;;;;;7379342;19;20019;-86
2022/08/11 01:04:07;;;;;;;9.82;4.43;;;27.60;39.80;;;;;;7393040;19;20015;-87
2022/08/11 01:06:53;;;;;;;8.50;4.43;;;27.50;40.10;;;;;;7393151;19;20006;-86
2022/08/11 01:09:56;;;;;;;5.65;4.00;;;27.50;39.90;;;;;;7377677;19;20073;-86
2022/08/11 01:12:48;;;;;;;8.73;4.05;;;27.50;40.30;;;;;;7376568;19;20014;-86
2022/08/11 01:15:44;;;;;;;5.22;3.67;;;27.40;40.40;;;;;;7377466;19;20066;-87
2022/08/11 01:18:43;;;;;;;4.13;3.22;;;27.40;40.20;;;;;;7373946;19;20018;-86
2022/08/11 01:21:48;;;;;;;9.25;3.92;;;27.30;40.40;;;;;;7375108;19;20014;-87
2022/08/11 01:24:53;;;;;;;6.68;3.78;;;27.30;39.90;;;;;;7376767;19;20015;-87
2022/08/11 01:28:04;;;;;;;6.95;3.53;;;27.20;39.90;;;;;;7376683;19;20365;-87
2022/08/11 01:31:09;;;;;;;10.95;3.53;;;27.20;39.50;;;;;;7375086;19;20070;-87
2022/08/11 01:34:10;;;;;;;6.68;3.40;;;27.30;39.30;;;;;;7375897;19;20471;-87
2022/08/11 01:37:06;;;;;;;6.82;3.38;;;27.20;38.70;;;;;;7376120;19;20027;-86
2022/08/11 01:40:04;;;;;;;4.82;3.47;;;27.20;39.00;;;;;;7376550;19;20027;-86
2022/08/11 01:45:54;;;;;;;11.40;3.20;;;27.00;38.80;;;;;;7381456;19;20029;-85
2022/08/11 01:48:34;;;;;;;5.18;3.03;;;27.00;39.00;;;;;;7379384;19;20014;-87
2022/08/11 01:51:28;;;;;;;5.68;3.03;;;27.00;38.90;;;;;;7379497;19;20009;-86
2022/08/11 01:54:06;;;;;;;6.30;3.10;;;27.00;38.70;;;;;;7382654;19;20017;-86
2022/08/11 01:56:48;;;;;;;6.53;3.08;;;27.00;38.60;;;;;;7393314;19;20027;-86
2022/08/11 01:59:22;;;;;;;7.32;3.22;;;27.00;38.70;;;;;;7393012;19;20477;-87
2022/08/11 02:02:44;;;;;;;6.50;3.40;;;27.00;38.60;;;;;;7414626;19;20398;-87
2022/08/11 02:05:41;;;;;;;3.93;2.70;;;27.00;38.70;;;;;;7297184;19;2004523;-86
2022/08/11 02:08:23;;;;;;;8.05;3.10;;;27.00;39.00;;;;;;7400442;19;20739;-87
2022/08/11 02:13:51;;;;;;;6.75;3.40;;;27.00;38.90;;;;;;7408587;19;20055;-88
2022/08/11 02:16:30;;;;;;;4.95;2.83;;;26.90;38.90;;;;;;7409936;19;20027;-88
2022/08/11 02:24:58;;;;;;;3.90;2.83;;;26.90;38.80;;;;;;7391238;19;20087;-87
2022/08/11 02:27:37;;;;;;;4.40;2.55;;;26.90;39.00;;;;;;7377650;19;20014;-88
2022/08/11 02:30:09;;;;;;;4.40;3.33;;;26.80;38.90;;;;;;7378049;19;20007;-88
2022/08/11 02:35:35;;;;;;;10.95;3.15;;;26.80;38.70;;;;;;7395087;19;20039;-87
2022/08/11 02:38:16;;;;;;;5.60;2.70;;;26.70;38.70;;;;;;7412482;19;20035;-86
2022/08/11 02:40:51;;;;;;;5.27;2.87;;;26.70;38.50;;;;;;7402141;19;20090;-86
2022/08/11 02:43:41;;;;;;;9.35;2.50;;;26.60;38.70;;;;;;7375153;19;20061;-87
2022/08/11 02:46:22;;;;;;;7.05;3.00;;;26.60;38.80;;;;;;7375101;19;20060;-87
2022/08/11 02:51:52;;;;;;;6.45;2.67;;;26.50;39.30;;;;;;7371729;19;20010;-88
2022/08/11 02:54:31;;;;;;;4.88;2.95;;;26.50;38.90;;;;;;7370243;19;20018;-88
2022/08/11 02:57:06;;;;;;;6.25;3.00;;;26.50;39.00;;;;;;7372804;19;20030;-88
2022/08/11 02:59:53;;;;;;;5.30;3.13;;;26.40;39.00;;;;;;7374782;19;20906;-88
2022/08/11 03:02:37;;;;;;;4.68;3.03;;;26.40;39.40;;;;;;7374412;19;20027;-88
2022/08/11 03:05:19;;;;;;;7.50;3.08;;;26.30;39.70;;;;;;7380800;19;20015;-87
2022/08/11 03:08:05;;;;;;;6.70;3.00;;;26.30;39.50;;;;;;7395768;19;20014;-87
2022/08/11 03:10:43;;;;;;;6.70;2.70;;;26.40;39.50;;;;;;7379669;19;20039;-87
2022/08/11 03:19:04;;;;;;;5.80;2.92;;;26.30;39.50;;;;;;7376528;19;20045;-87
2022/08/11 03:21:38;;;;;;;3.78;2.88;;;26.30;40.00;;;;;;7375762;19;20656;-86
2022/08/11 03:24:15;;;;;;;6.72;3.28;;;26.30;39.60;;;;;;7376906;19;20063;-87
2022/08/11 03:26:54;;;;;;;5.78;3.30;;;26.30;39.60;;;;;;7376492;19;20006;-87
2022/08/11 03:29:39;;;;;;;7.15;2.97;;;26.30;39.50;;;;;;7375672;19;20010;-87
2022/08/11 03:32:23;;;;;;;7.20;3.33;;;26.30;39.70;;;;;;7375691;19;20773;-87
2022/08/11 03:34:51;;;;;;;4.95;3.45;;;26.30;39.40;;;;;;7397407;19;20022;-88
2022/08/11 03:43:22;;;;;;;4.68;3.15;;;26.20;39.70;;;;;;7376114;19;20010;-87
2022/08/11 03:46:02;;;;;;;11.35;3.42;;;26.30;39.80;;;;;;7383526;19;20010;-86
2022/08/11 03:48:44;;;;;;;7.50;3.45;;;26.20;39.80;;;;;;7381800;19;20028;-86
2022/08/11 03:51:23;;;;;;;8.13;3.65;;;26.30;39.90;;;;;;7382502;19;20458;-88
2022/08/11 03:54:14;;;;;;;7.63;3.67;;;26.30;39.90;;;;;;7382992;19;20038;-87
2022/08/11 03:57:28;;;;;;;7.72;3.10;;;26.30;40.00;;;;;;7381483;19;20034;-87
2022/08/11 04:00:25;;;;;;;5.50;3.22;;;26.30;40.10;;;;;;7383247;19;20027;-88
2022/08/11 04:03:27;;;;;;;6.43;3.17;;;26.20;40.10;;;;;;7385176;19;20531;-89
2022/08/11 04:06:19;;;;;;;;;;;26.20;40.00;;;;;;7387164;19;20063;-88
2022/08/11 04:09:32;;;;;;;7.30;3.22;;;26.20;40.20;;;;;;7400821;19;19923;-87
2022/08/11 04:12:33;;;;;;;9.15;3.00;;;26.20;40.10;;;;;;7385114;19;20031;-86
2022/08/11 04:18:56;;;;;;;8.25;3.38;;;26.20;40.10;;;;;;7380161;19;20034;-86
2022/08/11 04:22:04;;;;;;;9.18;3.47;;;26.20;40.10;;;;;;7382216;19;20157;-86
2022/08/11 04:25:10;;;;;;;6.57;3.35;;;26.20;40.00;;;;;;7382171;19;20026;-86
2022/08/11 04:28:18;;;;;;;6.30;3.42;;;26.20;40.70;;;;;;7382261;19;20118;-87
2022/08/11 04:31:06;;;;;;;6.75;3.67;;;26.20;39.90;;;;;;7379993;19;20019;-85
2022/08/11 04:34:01;;;;;;;6.15;3.22;;;26.20;40.00;;;;;;7382310;19;20093;-86
2022/08/11 04:40:18;;;;;;;6.05;3.22;;;26.20;40.10;;;;;;7383226;19;20446;-87
2022/08/11 04:43:26;;;;;;;9.45;3.35;;;26.20;40.30;;;;;;7382535;19;20094;-87
2022/08/11 04:46:31;;;;;;;5.32;3.78;;;26.10;41.00;;;;;;7386985;19;20442;-87
2022/08/11 05:07:19;;;;;;;5.57;3.90;;;25.90;40.80;;;;;;7380095;19;20078;-87
2022/08/11 05:10:13;;;;;;;8.20;3.47;;;25.80;40.80;;;;;;7379463;19;20019;-86
2022/08/11 05:12:50;;;;;;;7.85;3.35;;;25.70;41.20;;;;;;7379653;19;20756;-87
2022/08/11 05:35:07;;;;;;;7.55;3.70;;;25.70;42.30;;;;;;7398910;19;20037;-89
2022/08/11 05:57:03;;;;;;;8.95;3.72;;;26.10;43.20;;;;;;7380733;19;20018;-89
2022/08/11 05:59:34;;;;;;;8.18;3.65;;;26.10;43.50;;;;;;7380863;19;20010;-89
2022/08/11 06:02:09;;;;;;;14.07;4.55;;;26.10;43.10;;;;;;7404341;19;20014;-91
2022/08/11 06:04:38;;;;;;;8.27;3.97;;;26.20;43.40;;;;;;7388661;19;20003;-90
2022/08/11 06:07:10;;;;;;;13.15;4.22;;;26.30;43.20;;;;;;7388511;19;20023;-89
2022/08/11 06:09:49;;;;;;;11.43;3.90;;;26.30;43.50;;;;;;7392492;19;20438;-89
2022/08/11 06:12:21;;;;;;;9.98;3.97;;;26.30;43.40;;;;;;7394275;19;20020;-86
2022/08/11 06:14:55;;;;;;;11.02;4.30;;;26.30;43.40;;;;;;7386687;19;20379;-89
2022/08/11 06:17:32;;;;;;;9.70;3.58;;;26.40;43.90;;;;;;7387769;19;20121;-87
2022/08/11 06:20:03;;;;;;;15.70;3.92;;;26.40;43.70;;;;;;7407773;19;20011;-84
2022/08/11 06:22:33;;;;;;;10.93;4.10;;;26.40;44.20;;;;;;7375970;19;20015;-87
2022/08/11 06:25:03;;;;;;;10.48;3.95;;;26.50;44.70;;;;;;7383955;19;20028;-88
2022/08/11 07:29:40;;;;;;;3.58;2.55;;;27.80;35.50;;;;;;7380362;19;20010;-86
2022/08/11 07:32:22;;;;;;;3.65;2.70;;;27.90;35.60;;;;;;7380384;19;20022;-85
2022/08/11 07:34:57;;;;;;;7.05;2.72;;;27.90;35.60;;;;;;7401861;19;20030;-86
2022/08/11 07:37:33;;;;;;;8.57;2.40;;;28.00;35.40;;;;;;7376393;19;20020;-84
2022/08/11 07:40:04;;;;;;;7.57;2.65;;;28.00;35.20;;;;;;7378066;19;20340;-86
2022/08/11 07:42:37;;;;;;;13.02;2.53;;;28.00;35.00;;;;;;7374910;19;20089;-85
2022/08/11 07:53:17;;;;;;;5.65;2.60;;;28.10;34.60;;;;;;7379069;19;20504;-85
2022/08/11 07:55:46;;;;;;;5.05;2.78;;;28.10;35.30;;;;;;7401496;19;20024;-86
2022/08/11 08:19:59;;;;;;;3.88;2.63;;;28.40;34.40;;;;;;7381574;19;20018;-88
2022/08/11 08:22:28;;;;;;;5.63;2.78;;;28.40;34.60;;;;;;7403199;19;20015;-88
2022/08/11 08:25:00;;;;;;;19.98;3.30;;;28.40;34.70;;;;;;7378799;19;20025;-87
2022/08/11 08:27:29;;;;;;;15.93;2.72;;;28.40;34.50;;;;;;7382733;19;20032;-87
2022/08/11 08:32:43;;;;;;;4.28;2.17;;;28.50;34.50;;;;;;7386877;19;20010;-88
2022/08/11 08:35:14;;;;;;;;;;;28.50;34.40;;;;;;7380057;19;20107;-85
2022/08/11 08:37:43;;;;;;;4.95;2.60;;;28.60;34.40;;;;;;7405279;19;19915;-87
2022/08/11 08:40:15;;;;;;;6.30;2.40;;;28.60;34.20;;;;;;7380481;19;20035;-88
2022/08/11 08:42:56;;;;;;;9.75;2.20;;;28.60;34.50;;;;;;7392957;19;20071;-87
2022/08/11 08:45:26;;;;;;;4.53;2.63;;;28.60;34.70;;;;;;7396692;19;20015;-87
2022/08/11 08:48:01;;;;;;;6.25;2.53;;;28.70;34.60;;;;;;7398070;19;20025;-88
2022/08/11 08:53:17;;;;;;;6.13;2.53;;;28.70;34.20;;;;;;7377150;19;20458;-89
2022/08/11 08:55:55;;;;;;;6.65;2.30;;;28.70;34.40;;;;;;7401367;19;20082;-87
2022/08/11 08:58:28;;;;;;;7.55;1.95;;;28.70;34.70;;;;;;7377952;19;20054;-86
2022/08/11 09:01:00;;;;;;;9.30;2.30;;;28.80;34.40;;;;;;7376139;19;20019;-87
2022/08/11 09:03:29;;;;;;;8.77;2.70;;;28.80;34.20;;;;;;7376954;19;20136;-88
2022/08/11 09:05:59;;;;;;;10.80;2.60;;;28.90;34.30;;;;;;7380387;19;20026;-87
2022/08/11 09:08:29;;;;;;;7.65;2.40;;;28.90;34.30;;;;;;7377724;19;20351;-88
2022/08/11 09:13:45;;;;;;;6.30;2.40;;;28.90;34.00;;;;;;7398212;19;20029;-86
2022/08/11 09:16:14;;;;;;;9.38;2.45;;;29.00;33.90;;;;;;7376029;19;20010;-86
2022/08/11 09:18:45;;;;;;;6.97;2.05;;;29.00;34.00;;;;;;7372671;19;20018;-85
2022/08/11 09:21:17;;;;;;;;;;;29.00;34.00;;;;;;7379663;19;20051;-86
2022/08/11 09:29:18;;;;;;;7.55;2.25;;;29.10;34.10;;;;;;7382908;19;20011;-89
2022/08/11 09:31:48;;;;;;;7.72;2.40;;;29.20;33.70;;;;;;7405729;19;20039;-89
2022/08/11 10:43:01;;;;;;;4.05;2.40;;;30.10;30.10;;;;;;4303469;19;17489928;-87
2022/08/11 11:19:10;;;;;;;2.40;2.15;;;30.70;29.30;;;;;;7366812;19;20125;-82
2022/08/11 11:21:41;;;;;;;2.97;2.47;;;30.70;29.30;;;;;;7368040;19;20516;-82
2022/08/11 11:24:16;;;;;;;5.15;2.40;;;30.90;29.60;;;;;;7369260;19;20041;-82
2022/08/11 11:26:55;;;;;;;3.85;2.40;;;30.80;29.00;;;;;;7365491;19;20031;-82
2022/08/11 11:29:49;;;;;;;5.40;2.38;;;30.90;29.20;;;;;;7366176;19;20114;-82
2022/08/11 11:32:28;;;;;;;6.97;2.25;;;30.90;29.10;;;;;;7366513;19;20046;-82
2022/08/11 11:35:22;;;;;;;8.07;2.47;;;31.00;29.30;;;;;;7367099;19;20019;-82
2022/08/11 11:37:53;;;;;;;7.68;2.53;;;31.00;29.20;;;;;;7386873;19;20047;-82
2022/08/11 11:40:23;;;;;;;11.85;2.80;;;31.10;29.20;;;;;;7365838;19;20029;-82
2022/08/11 11:42:55;;;;;;;9.27;2.45;;;31.20;29.40;;;;;;7366941;19;20122;-82
2022/08/11 11:45:27;;;;;;;10.52;2.60;;;31.20;29.20;;;;;;7367805;19;20015;-82
2022/08/11 11:47:58;;;;;;;6.20;2.30;;;31.30;29.00;;;;;;7366812;19;20029;-82
2022/08/11 11:50:29;;;;;;;9.13;2.60;;;31.30;28.60;;;;;;7368467;19;20036;-83
2022/08/11 11:52:58;;;;;;;;;;;31.30;28.70;;;;;;7370030;19;20018;-82
2022/08/11 11:55:29;;;;;;;5.93;2.40;;;31.40;28.70;;;;;;7402170;19;19915;-82
2022/08/11 12:03:32;;;;;;;6.22;2.20;;;31.50;29.00;;;;;;7369611;19;20356;-82
2022/08/11 12:06:02;;;;;;;7.82;2.50;;;31.50;28.90;;;;;;7370176;19;20097;-84
2022/08/11 12:08:32;;;;;;;17.50;2.50;;;31.60;29.00;;;;;;7369541;19;20089;-84
2022/08/11 12:13:49;;;;;;;7.88;4.28;;;31.70;28.40;;;;;;7391526;19;20024;-82
2022/08/11 12:16:21;;;;;;;2.83;2.30;;;31.70;28.50;;;;;;7369275;19;20100;-81
2022/08/11 12:18:55;;;;;;;8.25;2.30;;;31.70;28.30;;;;;;7368011;19;20045;-83
2022/08/11 12:21:25;;;;;;;10.88;2.78;;;31.70;28.50;;;;;;7369848;19;20036;-82
2022/08/11 12:29:26;;;;;;;3.42;2.35;;;31.80;28.50;;;;;;7364093;19;20031;-83
2022/08/11 12:31:59;;;;;;;5.82;2.58;;;31.80;28.20;;;;;;7367548;19;20025;-85
2022/08/11 12:34:29;;;;;;;2.53;2.30;;;31.90;28.20;;;;;;7392295;19;20029;-84
2022/08/11 12:37:04;;;;;;;4.90;2.20;;;32.00;28.20;;;;;;7366339;19;20103;-82
2022/08/11 12:53:15;;;;;;;7.03;2.55;;;32.20;27.90;;;;;;7366705;19;20026;-82
2022/08/11 12:58:28;;;;;;;10.45;2.60;;;32.30;28.20;;;;;;7361654;19;20022;-81
2022/08/11 13:06:25;;;;;;;5.57;2.60;;;32.60;27.50;;;;;;7364768;19;20018;-83
2022/08/11 13:08:57;;;;;;;11.85;2.40;;;32.70;27.50;;;;;;7367970;19;20320;-83
2022/08/11 13:14:11;;;;;;;12.82;3.00;;;32.80;26.90;;;;;;7364311;19;20055;-82
2022/08/11 13:19:25;;;;;;;4.70;2.40;;;32.90;26.90;;;;;;7365627;19;20014;-83
2022/08/11 13:21:55;;;;;;;7.88;2.78;;;32.90;27.20;;;;;;7363767;19;20489;-83
2022/08/11 13:24:25;;;;;;;7.97;2.63;;;32.90;27.20;;;;;;7367019;19;20113;-82
2022/08/11 13:26:54;;;;;;;6.10;2.38;;;33.00;26.90;;;;;;7369465;19;20396;-84
2022/08/11 13:29:25;;;;;;;3.78;2.25;;;33.00;26.90;;;;;;7367286;19;20022;-81
2022/08/11 13:31:58;;;;;;;9.57;2.35;;;33.10;27.10;;;;;;7364279;19;20133;-81
2022/08/11 13:34:33;;;;;;;5.28;2.20;;;33.20;26.90;;;;;;7385212;19;20014;-83
2022/08/11 13:37:06;;;;;;;3.90;2.22;;;33.20;26.60;;;;;;7362640;19;20018;-83
2022/08/11 13:39:38;;;;;;;2.97;2.15;;;33.20;26.70;;;;;;7363491;19;20699;-84
2022/08/11 13:42:08;;;;;;;4.75;2.40;;;33.20;27.00;;;;;;7364645;19;20307;-82
2022/08/11 13:44:39;;;;;;;4.85;2.55;;;33.20;26.90;;;;;;7364210;19;20018;-83
2022/08/11 13:47:12;;;;;;;3.03;2.30;;;33.30;27.10;;;;;;7363617;19;20047;-84
2022/08/11 13:49:46;;;;;;;3.85;2.20;;;33.40;27.10;;;;;;7386742;19;20018;-83
2022/08/11 13:52:17;;;;;;;8.43;2.17;;;33.40;27.00;;;;;;7364575;19;20010;-84
2022/08/11 13:54:52;;;;;;;5.28;2.50;;;33.40;26.40;;;;;;7363864;19;20010;-85
2022/08/11 13:57:22;;;;;;;13.80;2.55;;;33.40;26.50;;;;;;7363895;19;20034;-83
2022/08/11 14:00:08;;;;;;;10.50;2.90;;;33.50;26.60;;;;;;7365964;19;20083;-84
2022/08/11 14:02:39;;;;;;;2.47;2.10;;;33.50;26.60;;;;;;7366436;19;20043;-84
2022/08/11 14:05:16;;;;;;;6.75;2.53;;;33.60;26.40;;;;;;7365934;19;20057;-84
2022/08/11 14:07:51;;;;;;;4.82;2.10;;;33.70;26.70;;;;;;7390908;19;20019;-83
2022/08/11 14:10:22;;;;;;;2.70;2.22;;;33.70;26.80;;;;;;7366797;19;20015;-85
2022/08/11 14:15:44;;;;;;;2.60;2.33;;;33.80;26.70;;;;;;7365977;19;20032;-85
2022/08/11 14:18:19;;;;;;;3.85;2.40;;;33.90;26.70;;;;;;7374084;19;20006;-83
2022/08/11 14:23:43;;;;;;;5.38;2.40;;;33.90;26.60;;;;;;7377153;19;20034;-88
2022/08/11 14:26:26;;;;;;;4.15;2.50;;;34.00;26.70;;;;;;7388081;19;19996;-92
2022/08/11 14:32:41;;;;;;;3.17;2.50;;;34.00;26.70;;;;;;7399686;19;20038;-90
2022/08/11 14:35:24;;;;;;;13.90;2.63;;;34.10;26.80;;;;;;7268398;19;2004333;-90
2022/08/11 14:37:59;;;;;;;4.47;2.03;;;34.10;26.50;;;;;;7380732;19;20015;-88
2022/08/11 14:48:42;;;;;;;6.88;2.70;;;34.30;26.70;;;;;;7376991;19;20014;-88
2022/08/11 14:51:11;;;;;;;2.70;2.50;;;34.40;26.30;;;;;;7373369;19;20022;-85
2022/08/11 14:53:48;;;;;;;8.75;2.78;;;34.40;26.20;;;;;;7373056;19;20026;-93
2022/08/11 14:58:58;;;;;;;5.85;2.38;;;34.30;26.30;;;;;;7392746;19;20018;-88
2022/08/11 15:04:12;;;;;;;7.53;2.60;;;34.40;26.30;;;;;;7378144;19;20031;-87
2022/08/11 15:06:41;;;;;;;7.63;2.50;;;34.40;26.20;;;;;;7376774;19;20031;-90
2022/08/11 15:12:39;;;;;;;3.90;2.60;;;34.40;25.90;;;;;;7370053;19;20051;-86
2022/08/11 15:17:56;;;;;;;8.38;2.15;;;34.40;25.70;;;;;;7386313;19;20021;-88
2022/08/11 16:52:04;;;;;;;5.13;2.40;;;45.20;19.60;;;;;;7369955;19;20047;-87
2022/08/11 16:54:58;;;;;;;9.50;2.20;;;45.60;19.40;;;;;;7373144;19;20014;-91
2022/08/11 17:00:48;;;;;;;2.60;2.10;;;46.00;18.90;;;;;;7369873;19;20018;-91
2022/08/11 17:59:55;;;;;;;6.07;2.67;;;44.80;19.90;;;;;;7388815;19;20010;-91
